sensor_id;sensor_type;location;lat;lon;timestamp;P1;durP1;ratioP1;P2;durP2;ratioP2
78796;SDS011;68145;52.514;13.460;2023-05-15T00:01:20;11.40;;;7.10;;
78796;SDS011;68145;52.514;13.460;2023-05-15T00:03:47;11.70;;;7.63;;
78796;SDS011;68145;52.514;13.460;2023-05-15T00:06:14;11.60;;;7.50;;
78796;SDS011;68145;52.514;13.460;2023-05-15T00:08:40;11.20;;;7.13;;
78796;SDS011;68145;52.514;13.460;2023-05-15T00:11:06;12.82;;;8.18;;
78796;SDS011;68145;52.514;13.460;2023-05-15T00:13:32;11.10;;;7.68;;
78796;SDS011;68145;52.514;13.460;2023-05-15T00:15:58;10.52;;;7.35;;
78796;SDS011;68145;52.514;13.460;2023-05-15T00:18:24;11.68;;;7.32;;
78796;SDS011;68145;52.514;13.460;2023-05-15T00:20:51;9.38;;;6.72;;
78796;SDS011;68145;52.514;13.460;2023-05-15T00:23:17;10.07;;;6.90;;
78796;SDS011;68145;52.514;13.460;2023-05-15T00:25:43;8.75;;;7.07;;
78796;SDS011;68145;52.514;13.460;2023-05-15T00:28:09;10.18;;;6.50;;
78796;SDS011;68145;52.514;13.460;2023-05-15T00:30:35;10.80;;;6.85;;
78796;SDS011;68145;52.514;13.460;2023-05-15T00:33:01;9.07;;;7.07;;
78796;SDS011;68145;52.514;13.460;2023-05-15T00:35:27;10.70;;;7.32;;
78796;SDS011;68145;52.514;13.460;2023-05-15T00:37:53;11.98;;;6.63;;
78796;SDS011;68145;52.514;13.460;2023-05-15T00:40:20;11.50;;;7.13;;
78796;SDS011;68145;52.514;13.460;2023-05-15T00:42:46;10.25;;;6.68;;
78796;SDS011;68145;52.514;13.460;2023-05-15T00:45:13;9.85;;;7.20;;
78796;SDS011;68145;52.514;13.460;2023-05-15T00:47:39;9.85;;;6.95;;
78796;SDS011;68145;52.514;13.460;2023-05-15T00:50:07;12.73;;;7.50;;
78796;SDS011;68145;52.514;13.460;2023-05-15T00:52:33;12.15;;;7.78;;
78796;SDS011;68145;52.514;13.460;2023-05-15T00:55:00;8.18;;;7.35;;
78796;SDS011;68145;52.514;13.460;2023-05-15T00:57:26;10.57;;;7.13;;
78796;SDS011;68145;52.514;13.460;2023-05-15T00:59:53;11.20;;;7.18;;
78796;SDS011;68145;52.514;13.460;2023-05-15T01:02:20;13.18;;;7.57;;
78796;SDS011;68145;52.514;13.460;2023-05-15T01:04:46;8.80;;;7.05;;
78796;SDS011;68145;52.514;13.460;2023-05-15T01:07:12;8.98;;;7.00;;
78796;SDS011;68145;52.514;13.460;2023-05-15T01:09:41;9.25;;;6.35;;
78796;SDS011;68145;52.514;13.460;2023-05-15T01:12:10;10.55;;;6.78;;
78796;SDS011;68145;52.514;13.460;2023-05-15T01:14:36;8.85;;;6.85;;
78796;SDS011;68145;52.514;13.460;2023-05-15T01:17:02;7.63;;;5.93;;
78796;SDS011;68145;52.514;13.460;2023-05-15T01:19:28;11.48;;;6.55;;
78796;SDS011;68145;52.514;13.460;2023-05-15T01:32:11;11.65;;;7.80;;
78796;SDS011;68145;52.514;13.460;2023-05-15T01:34:42;9.15;;;7.35;;
78796;SDS011;68145;52.514;13.460;2023-05-15T01:37:10;9.95;;;7.00;;
78796;SDS011;68145;52.514;13.460;2023-05-15T01:39:37;10.13;;;7.18;;
78796;SDS011;68145;52.514;13.460;2023-05-15T01:44:31;13.32;;;9.18;;
78796;SDS011;68145;52.514;13.460;2023-05-15T01:47:00;11.48;;;7.72;;
78796;SDS011;68145;52.514;13.460;2023-05-15T01:49:27;16.58;;;7.05;;
78796;SDS011;68145;52.514;13.460;2023-05-15T01:51:57;10.18;;;6.97;;
78796;SDS011;68145;52.514;13.460;2023-05-15T01:54:24;10.15;;;7.38;;
78796;SDS011;68145;52.514;13.460;2023-05-15T01:56:52;10.23;;;6.88;;
78796;SDS011;68145;52.514;13.460;2023-05-15T01:59:19;10.60;;;7.57;;
78796;SDS011;68145;52.514;13.460;2023-05-15T02:01:46;9.73;;;7.35;;
78796;SDS011;68145;52.514;13.460;2023-05-15T02:04:12;12.32;;;7.88;;
78796;SDS011;68145;52.514;13.460;2023-05-15T02:06:39;12.60;;;7.38;;
78796;SDS011;68145;52.514;13.460;2023-05-15T02:09:05;10.05;;;8.07;;
78796;SDS011;68145;52.514;13.460;2023-05-15T02:11:32;10.50;;;7.05;;
78796;SDS011;68145;52.514;13.460;2023-05-15T02:13:58;11.95;;;7.72;;
78796;SDS011;68145;52.514;13.460;2023-05-15T02:16:25;9.48;;;7.78;;
78796;SDS011;68145;52.514;13.460;2023-05-15T02:18:51;9.90;;;7.40;;
78796;SDS011;68145;52.514;13.460;2023-05-15T02:21:18;13.25;;;8.27;;
78796;SDS011;68145;52.514;13.460;2023-05-15T02:23:44;11.35;;;7.88;;
78796;SDS011;68145;52.514;13.460;2023-05-15T02:28:43;11.30;;;8.50;;
78796;SDS011;68145;52.514;13.460;2023-05-15T02:36:26;12.45;;;7.80;;
78796;SDS011;68145;52.514;13.460;2023-05-15T02:38:54;10.45;;;8.23;;
78796;SDS011;68145;52.514;13.460;2023-05-15T02:41:21;10.77;;;8.02;;
78796;SDS011;68145;52.514;13.460;2023-05-15T02:43:51;10.30;;;7.93;;
78796;SDS011;68145;52.514;13.460;2023-05-15T02:46:19;10.63;;;8.20;;
78796;SDS011;68145;52.514;13.460;2023-05-15T02:48:46;9.85;;;8.13;;
78796;SDS011;68145;52.514;13.460;2023-05-15T02:51:12;11.60;;;7.80;;
78796;SDS011;68145;52.514;13.460;2023-05-15T02:53:39;11.43;;;7.95;;
78796;SDS011;68145;52.514;13.460;2023-05-15T02:56:05;12.73;;;8.90;;
78796;SDS011;68145;52.514;13.460;2023-05-15T02:58:31;11.25;;;8.68;;
78796;SDS011;68145;52.514;13.460;2023-05-15T03:00:57;11.10;;;8.23;;
78796;SDS011;68145;52.514;13.460;2023-05-15T03:03:23;11.98;;;8.88;;
78796;SDS011;68145;52.514;13.460;2023-05-15T03:05:49;12.25;;;8.10;;
78796;SDS011;68145;52.514;13.460;2023-05-15T03:08:16;13.43;;;8.50;;
78796;SDS011;68145;52.514;13.460;2023-05-15T03:10:43;11.05;;;8.10;;
78796;SDS011;68145;52.514;13.460;2023-05-15T03:13:09;12.77;;;8.02;;
78796;SDS011;68145;52.514;13.460;2023-05-15T03:15:35;15.20;;;7.80;;
78796;SDS011;68145;52.514;13.460;2023-05-15T03:18:01;12.18;;;8.45;;
78796;SDS011;68145;52.514;13.460;2023-05-15T03:20:27;12.07;;;8.45;;
78796;SDS011;68145;52.514;13.460;2023-05-15T03:22:53;11.27;;;8.88;;
78796;SDS011;68145;52.514;13.460;2023-05-15T03:25:20;10.38;;;8.30;;
78796;SDS011;68145;52.514;13.460;2023-05-15T03:27:46;11.43;;;8.15;;
78796;SDS011;68145;52.514;13.460;2023-05-15T03:30:12;11.30;;;7.82;;
78796;SDS011;68145;52.514;13.460;2023-05-15T03:32:38;11.38;;;8.50;;
78796;SDS011;68145;52.514;13.460;2023-05-15T03:35:04;11.38;;;8.95;;
78796;SDS011;68145;52.514;13.460;2023-05-15T03:37:31;10.98;;;8.35;;
78796;SDS011;68145;52.514;13.460;2023-05-15T03:39:57;10.75;;;8.07;;
78796;SDS011;68145;52.514;13.460;2023-05-15T03:42:23;11.65;;;7.72;;
78796;SDS011;68145;52.514;13.460;2023-05-15T03:44:49;19.70;;;9.15;;
78796;SDS011;68145;52.514;13.460;2023-05-15T03:47:16;12.13;;;8.00;;
78796;SDS011;68145;52.514;13.460;2023-05-15T03:49:42;12.05;;;8.18;;
78796;SDS011;68145;52.514;13.460;2023-05-15T03:52:08;12.20;;;8.63;;
78796;SDS011;68145;52.514;13.460;2023-05-15T03:54:35;16.83;;;8.93;;
78796;SDS011;68145;52.514;13.460;2023-05-15T03:57:01;13.68;;;8.32;;
78796;SDS011;68145;52.514;13.460;2023-05-15T03:59:28;11.38;;;8.13;;
78796;SDS011;68145;52.514;13.460;2023-05-15T04:01:55;10.55;;;8.23;;
78796;SDS011;68145;52.514;13.460;2023-05-15T04:04:21;10.93;;;8.63;;
78796;SDS011;68145;52.514;13.460;2023-05-15T04:06:47;17.25;;;8.75;;
78796;SDS011;68145;52.514;13.460;2023-05-15T04:09:13;13.52;;;8.82;;
78796;SDS011;68145;52.514;13.460;2023-05-15T04:11:39;11.38;;;8.18;;
78796;SDS011;68145;52.514;13.460;2023-05-15T04:14:05;16.73;;;9.32;;
78796;SDS011;68145;52.514;13.460;2023-05-15T04:16:31;12.57;;;8.88;;
78796;SDS011;68145;52.514;13.460;2023-05-15T04:18:57;12.85;;;8.73;;
78796;SDS011;68145;52.514;13.460;2023-05-15T04:21:23;15.32;;;9.63;;
78796;SDS011;68145;52.514;13.460;2023-05-15T04:23:49;11.90;;;8.68;;
78796;SDS011;68145;52.514;13.460;2023-05-15T04:26:15;16.85;;;9.65;;
78796;SDS011;68145;52.514;13.460;2023-05-15T04:28:42;22.42;;;10.48;;
78796;SDS011;68145;52.514;13.460;2023-05-15T04:31:08;15.15;;;9.85;;
78796;SDS011;68145;52.514;13.460;2023-05-15T04:33:34;17.85;;;10.10;;
78796;SDS011;68145;52.514;13.460;2023-05-15T04:36:00;15.20;;;10.48;;
78796;SDS011;68145;52.514;13.460;2023-05-15T04:38:27;15.10;;;10.70;;
78796;SDS011;68145;52.514;13.460;2023-05-15T04:40:53;14.25;;;10.05;;
78796;SDS011;68145;52.514;13.460;2023-05-15T04:43:19;14.52;;;10.25;;
78796;SDS011;68145;52.514;13.460;2023-05-15T04:45:45;18.08;;;10.88;;
78796;SDS011;68145;52.514;13.460;2023-05-15T04:48:11;14.43;;;11.13;;
78796;SDS011;68145;52.514;13.460;2023-05-15T04:50:37;16.88;;;9.55;;
78796;SDS011;68145;52.514;13.460;2023-05-15T04:53:03;16.60;;;10.25;;
78796;SDS011;68145;52.514;13.460;2023-05-15T04:55:30;18.58;;;10.48;;
78796;SDS011;68145;52.514;13.460;2023-05-15T04:57:56;18.42;;;9.98;;
78796;SDS011;68145;52.514;13.460;2023-05-15T05:00:22;13.32;;;9.18;;
78796;SDS011;68145;52.514;13.460;2023-05-15T05:02:48;16.15;;;9.35;;
78796;SDS011;68145;52.514;13.460;2023-05-15T05:05:14;24.25;;;9.80;;
78796;SDS011;68145;52.514;13.460;2023-05-15T05:07:41;12.68;;;8.65;;
78796;SDS011;68145;52.514;13.460;2023-05-15T05:10:08;10.38;;;8.60;;
78796;SDS011;68145;52.514;13.460;2023-05-15T05:12:34;14.48;;;8.85;;
78796;SDS011;68145;52.514;13.460;2023-05-15T05:15:00;11.65;;;8.73;;
78796;SDS011;68145;52.514;13.460;2023-05-15T05:17:26;12.90;;;8.57;;
78796;SDS011;68145;52.514;13.460;2023-05-15T05:19:53;13.40;;;8.05;;
78796;SDS011;68145;52.514;13.460;2023-05-15T05:22:19;12.23;;;8.35;;
78796;SDS011;68145;52.514;13.460;2023-05-15T05:24:45;13.02;;;7.32;;
78796;SDS011;68145;52.514;13.460;2023-05-15T05:27:11;12.32;;;7.72;;
78796;SDS011;68145;52.514;13.460;2023-05-15T05:29:37;9.23;;;7.35;;
78796;SDS011;68145;52.514;13.460;2023-05-15T05:32:04;10.15;;;7.18;;
78796;SDS011;68145;52.514;13.460;2023-05-15T05:34:30;13.32;;;7.88;;
78796;SDS011;68145;52.514;13.460;2023-05-15T05:36:57;12.15;;;7.18;;
78796;SDS011;68145;52.514;13.460;2023-05-15T05:39:23;9.25;;;7.53;;
78796;SDS011;68145;52.514;13.460;2023-05-15T05:41:49;8.77;;;7.43;;
78796;SDS011;68145;52.514;13.460;2023-05-15T05:44:15;9.85;;;7.03;;
78796;SDS011;68145;52.514;13.460;2023-05-15T05:46:41;9.48;;;7.07;;
78796;SDS011;68145;52.514;13.460;2023-05-15T05:49:07;10.20;;;6.88;;
78796;SDS011;68145;52.514;13.460;2023-05-15T05:51:33;27.60;;;17.33;;
78796;SDS011;68145;52.514;13.460;2023-05-15T05:56:26;14.45;;;7.75;;
78796;SDS011;68145;52.514;13.460;2023-05-15T05:58:53;9.50;;;7.15;;
78796;SDS011;68145;52.514;13.460;2023-05-15T06:01:20;12.27;;;7.55;;
78796;SDS011;68145;52.514;13.460;2023-05-15T06:03:46;10.27;;;7.90;;
78796;SDS011;68145;52.514;13.460;2023-05-15T06:06:12;8.02;;;7.03;;
78796;SDS011;68145;52.514;13.460;2023-05-15T06:08:38;10.57;;;7.82;;
78796;SDS011;68145;52.514;13.460;2023-05-15T06:11:04;11.27;;;7.55;;
78796;SDS011;68145;52.514;13.460;2023-05-15T06:13:31;10.68;;;8.43;;
78796;SDS011;68145;52.514;13.460;2023-05-15T06:15:57;11.23;;;8.73;;
78796;SDS011;68145;52.514;13.460;2023-05-15T06:18:23;12.60;;;8.48;;
78796;SDS011;68145;52.514;13.460;2023-05-15T06:20:49;12.40;;;9.57;;
78796;SDS011;68145;52.514;13.460;2023-05-15T06:23:15;11.98;;;7.55;;
78796;SDS011;68145;52.514;13.460;2023-05-15T06:25:41;12.30;;;8.48;;
78796;SDS011;68145;52.514;13.460;2023-05-15T06:28:07;14.00;;;7.60;;
78796;SDS011;68145;52.514;13.460;2023-05-15T06:30:33;9.85;;;7.22;;
78796;SDS011;68145;52.514;13.460;2023-05-15T06:33:00;10.70;;;6.95;;
78796;SDS011;68145;52.514;13.460;2023-05-15T06:35:26;13.25;;;8.40;;
78796;SDS011;68145;52.514;13.460;2023-05-15T06:37:52;10.02;;;7.80;;
78796;SDS011;68145;52.514;13.460;2023-05-15T06:40:19;14.15;;;7.55;;
78796;SDS011;68145;52.514;13.460;2023-05-15T06:45:11;8.13;;;7.30;;
78796;SDS011;68145;52.514;13.460;2023-05-15T06:47:37;10.70;;;7.65;;
78796;SDS011;68145;52.514;13.460;2023-05-15T06:50:04;9.85;;;7.35;;
78796;SDS011;68145;52.514;13.460;2023-05-15T06:52:30;16.33;;;9.15;;
78796;SDS011;68145;52.514;13.460;2023-05-15T06:54:56;9.75;;;8.07;;
78796;SDS011;68145;52.514;13.460;2023-05-15T06:57:22;13.05;;;7.20;;
78796;SDS011;68145;52.514;13.460;2023-05-15T06:59:48;9.55;;;7.13;;
78796;SDS011;68145;52.514;13.460;2023-05-15T07:02:14;14.88;;;7.75;;
78796;SDS011;68145;52.514;13.460;2023-05-15T07:04:40;9.15;;;6.75;;
78796;SDS011;68145;52.514;13.460;2023-05-15T07:07:06;9.25;;;6.35;;
78796;SDS011;68145;52.514;13.460;2023-05-15T07:09:32;7.70;;;6.70;;
78796;SDS011;68145;52.514;13.460;2023-05-15T07:11:59;7.20;;;6.05;;
78796;SDS011;68145;52.514;13.460;2023-05-15T07:14:25;10.13;;;6.72;;
78796;SDS011;68145;52.514;13.460;2023-05-15T07:16:51;9.23;;;6.95;;
78796;SDS011;68145;52.514;13.460;2023-05-15T07:19:18;8.40;;;6.72;;
78796;SDS011;68145;52.514;13.460;2023-05-15T07:21:47;11.23;;;6.93;;
78796;SDS011;68145;52.514;13.460;2023-05-15T07:24:13;10.43;;;6.82;;
78796;SDS011;68145;52.514;13.460;2023-05-15T07:26:39;12.85;;;7.78;;
78796;SDS011;68145;52.514;13.460;2023-05-15T07:29:05;10.80;;;7.57;;
78796;SDS011;68145;52.514;13.460;2023-05-15T07:31:31;8.32;;;6.68;;
78796;SDS011;68145;52.514;13.460;2023-05-15T07:33:57;14.73;;;7.90;;
78796;SDS011;68145;52.514;13.460;2023-05-15T07:36:23;7.97;;;6.43;;
78796;SDS011;68145;52.514;13.460;2023-05-15T07:38:49;9.77;;;6.88;;
78796;SDS011;68145;52.514;13.460;2023-05-15T07:41:15;8.13;;;6.22;;
78796;SDS011;68145;52.514;13.460;2023-05-15T07:43:42;7.90;;;6.72;;
78796;SDS011;68145;52.514;13.460;2023-05-15T07:46:08;8.32;;;7.32;;
78796;SDS011;68145;52.514;13.460;2023-05-15T07:48:34;10.18;;;7.65;;
78796;SDS011;68145;52.514;13.460;2023-05-15T07:51:00;9.55;;;7.20;;
78796;SDS011;68145;52.514;13.460;2023-05-15T07:53:26;10.00;;;6.97;;
78796;SDS011;68145;52.514;13.460;2023-05-15T07:55:52;11.60;;;7.50;;
78796;SDS011;68145;52.514;13.460;2023-05-15T07:58:18;10.80;;;7.22;;
78796;SDS011;68145;52.514;13.460;2023-05-15T08:00:44;14.60;;;8.25;;
78796;SDS011;68145;52.514;13.460;2023-05-15T08:03:10;15.63;;;9.30;;
78796;SDS011;68145;52.514;13.460;2023-05-15T08:05:36;12.43;;;8.25;;
78796;SDS011;68145;52.514;13.460;2023-05-15T08:08:03;14.32;;;8.02;;
78796;SDS011;68145;52.514;13.460;2023-05-15T08:10:29;12.13;;;8.25;;
78796;SDS011;68145;52.514;13.460;2023-05-15T08:12:55;12.50;;;9.02;;
78796;SDS011;68145;52.514;13.460;2023-05-15T08:15:21;13.93;;;7.00;;
78796;SDS011;68145;52.514;13.460;2023-05-15T08:17:47;9.35;;;6.93;;
78796;SDS011;68145;52.514;13.460;2023-05-15T08:20:13;7.38;;;6.13;;
78796;SDS011;68145;52.514;13.460;2023-05-15T08:22:40;12.48;;;6.25;;
78796;SDS011;68145;52.514;13.460;2023-05-15T08:25:06;9.95;;;5.68;;
78796;SDS011;68145;52.514;13.460;2023-05-15T08:27:33;12.35;;;6.20;;
78796;SDS011;68145;52.514;13.460;2023-05-15T08:29:59;11.07;;;6.00;;
78796;SDS011;68145;52.514;13.460;2023-05-15T08:32:25;10.38;;;5.63;;
78796;SDS011;68145;52.514;13.460;2023-05-15T08:34:51;8.60;;;6.65;;
78796;SDS011;68145;52.514;13.460;2023-05-15T08:37:17;9.15;;;7.65;;
78796;SDS011;68145;52.514;13.460;2023-05-15T08:39:43;13.63;;;8.75;;
78796;SDS011;68145;52.514;13.460;2023-05-15T08:42:13;12.68;;;7.70;;
78796;SDS011;68145;52.514;13.460;2023-05-15T08:44:44;10.68;;;5.38;;
78796;SDS011;68145;52.514;13.460;2023-05-15T08:47:10;9.52;;;6.30;;
78796;SDS011;68145;52.514;13.460;2023-05-15T08:52:21;11.25;;;6.13;;
78796;SDS011;68145;52.514;13.460;2023-05-15T08:54:48;12.70;;;6.78;;
78796;SDS011;68145;52.514;13.460;2023-05-15T08:57:14;8.85;;;5.90;;
78796;SDS011;68145;52.514;13.460;2023-05-15T08:59:42;12.10;;;6.22;;
78796;SDS011;68145;52.514;13.460;2023-05-15T09:02:08;11.23;;;6.55;;
78796;SDS011;68145;52.514;13.460;2023-05-15T09:04:34;11.98;;;6.07;;
78796;SDS011;68145;52.514;13.460;2023-05-15T09:07:00;8.65;;;6.25;;
78796;SDS011;68145;52.514;13.460;2023-05-15T09:09:27;12.10;;;5.95;;
78796;SDS011;68145;52.514;13.460;2023-05-15T09:11:54;8.98;;;6.57;;
78796;SDS011;68145;52.514;13.460;2023-05-15T09:14:21;9.75;;;6.53;;
78796;SDS011;68145;52.514;13.460;2023-05-15T09:16:50;10.40;;;5.97;;
78796;SDS011;68145;52.514;13.460;2023-05-15T09:19:17;9.55;;;5.47;;
78796;SDS011;68145;52.514;13.460;2023-05-15T09:21:45;9.38;;;5.72;;
78796;SDS011;68145;52.514;13.460;2023-05-15T09:24:15;12.77;;;5.40;;
78796;SDS011;68145;52.514;13.460;2023-05-15T09:26:46;9.50;;;5.82;;
78796;SDS011;68145;52.514;13.460;2023-05-15T09:29:15;13.27;;;6.20;;
78796;SDS011;68145;52.514;13.460;2023-05-15T09:31:42;13.65;;;5.55;;
78796;SDS011;68145;52.514;13.460;2023-05-15T09:34:08;7.68;;;5.38;;
78796;SDS011;68145;52.514;13.460;2023-05-15T09:36:34;11.70;;;5.65;;
78796;SDS011;68145;52.514;13.460;2023-05-15T09:39:00;9.45;;;5.57;;
78796;SDS011;68145;52.514;13.460;2023-05-15T09:41:27;10.05;;;6.18;;
78796;SDS011;68145;52.514;13.460;2023-05-15T09:43:54;10.75;;;5.70;;
78796;SDS011;68145;52.514;13.460;2023-05-15T09:48:46;23.30;;;14.75;;
78796;SDS011;68145;52.514;13.460;2023-05-15T09:51:16;43.30;;;25.33;;
78796;SDS011;68145;52.514;13.460;2023-05-15T09:53:49;9.38;;;6.55;;
78796;SDS011;68145;52.514;13.460;2023-05-15T09:58:52;8.13;;;5.93;;
78796;SDS011;68145;52.514;13.460;2023-05-15T10:01:19;9.10;;;6.63;;
78796;SDS011;68145;52.514;13.460;2023-05-15T10:03:55;9.32;;;5.95;;
78796;SDS011;68145;52.514;13.460;2023-05-15T10:06:22;10.23;;;5.78;;
78796;SDS011;68145;52.514;13.460;2023-05-15T10:08:53;8.88;;;5.93;;
78796;SDS011;68145;52.514;13.460;2023-05-15T10:11:20;9.35;;;5.88;;
78796;SDS011;68145;52.514;13.460;2023-05-15T10:13:47;9.82;;;5.68;;
78796;SDS011;68145;52.514;13.460;2023-05-15T10:16:14;11.73;;;5.95;;
78796;SDS011;68145;52.514;13.460;2023-05-15T10:18:40;9.57;;;5.65;;
78796;SDS011;68145;52.514;13.460;2023-05-15T10:21:09;9.35;;;5.32;;
78796;SDS011;68145;52.514;13.460;2023-05-15T10:23:36;7.03;;;4.80;;
78796;SDS011;68145;52.514;13.460;2023-05-15T10:26:07;10.13;;;5.13;;
78796;SDS011;68145;52.514;13.460;2023-05-15T10:28:35;8.70;;;5.78;;
78796;SDS011;68145;52.514;13.460;2023-05-15T10:31:02;9.80;;;5.32;;
78796;SDS011;68145;52.514;13.460;2023-05-15T10:33:29;25.42;;;15.13;;
78796;SDS011;68145;52.514;13.460;2023-05-15T10:35:57;22.83;;;10.40;;
78796;SDS011;68145;52.514;13.460;2023-05-15T10:38:24;11.20;;;7.20;;
78796;SDS011;68145;52.514;13.460;2023-05-15T10:40:51;11.15;;;6.13;;
78796;SDS011;68145;52.514;13.460;2023-05-15T10:43:18;7.55;;;5.35;;
78796;SDS011;68145;52.514;13.460;2023-05-15T10:45:45;8.50;;;5.38;;
78796;SDS011;68145;52.514;13.460;2023-05-15T10:48:11;9.85;;;5.63;;
78796;SDS011;68145;52.514;13.460;2023-05-15T10:50:37;7.72;;;5.07;;
78796;SDS011;68145;52.514;13.460;2023-05-15T10:53:03;11.38;;;6.90;;
78796;SDS011;68145;52.514;13.460;2023-05-15T10:55:29;7.50;;;5.35;;
78796;SDS011;68145;52.514;13.460;2023-05-15T10:57:56;12.00;;;5.85;;
78796;SDS011;68145;52.514;13.460;2023-05-15T11:02:48;9.40;;;5.70;;
78796;SDS011;68145;52.514;13.460;2023-05-15T11:05:17;10.73;;;5.82;;
78796;SDS011;68145;52.514;13.460;2023-05-15T11:13:01;10.18;;;5.22;;
78796;SDS011;68145;52.514;13.460;2023-05-15T11:15:39;7.65;;;4.60;;
78796;SDS011;68145;52.514;13.460;2023-05-15T11:18:06;11.25;;;5.03;;
78796;SDS011;68145;52.514;13.460;2023-05-15T11:20:42;9.40;;;4.28;;
78796;SDS011;68145;52.514;13.460;2023-05-15T11:23:27;8.20;;;6.60;;
78796;SDS011;68145;52.514;13.460;2023-05-15T11:25:56;11.20;;;7.43;;
78796;SDS011;68145;52.514;13.460;2023-05-15T11:28:23;8.98;;;5.68;;
78796;SDS011;68145;52.514;13.460;2023-05-15T11:30:50;7.82;;;5.00;;
78796;SDS011;68145;52.514;13.460;2023-05-15T11:33:18;7.88;;;4.75;;
78796;SDS011;68145;52.514;13.460;2023-05-15T11:35:47;6.55;;;4.07;;
78796;SDS011;68145;52.514;13.460;2023-05-15T11:40:45;5.75;;;4.18;;
78796;SDS011;68145;52.514;13.460;2023-05-15T11:43:24;4.32;;;3.17;;
78796;SDS011;68145;52.514;13.460;2023-05-15T11:45:51;7.90;;;4.45;;
78796;SDS011;68145;52.514;13.460;2023-05-15T11:48:20;5.03;;;3.88;;
78796;SDS011;68145;52.514;13.460;2023-05-15T11:50:46;5.05;;;2.90;;
78796;SDS011;68145;52.514;13.460;2023-05-15T11:53:12;4.63;;;3.50;;
78796;SDS011;68145;52.514;13.460;2023-05-15T11:55:39;3.65;;;2.80;;
78796;SDS011;68145;52.514;13.460;2023-05-15T11:58:09;4.43;;;2.83;;
78796;SDS011;68145;52.514;13.460;2023-05-15T12:00:36;4.43;;;2.50;;
78796;SDS011;68145;52.514;13.460;2023-05-15T12:03:02;5.40;;;2.53;;
78796;SDS011;68145;52.514;13.460;2023-05-15T12:05:29;15.80;;;8.48;;
78796;SDS011;68145;52.514;13.460;2023-05-15T12:07:55;13.55;;;8.75;;
78796;SDS011;68145;52.514;13.460;2023-05-15T12:10:22;8.50;;;5.32;;
78796;SDS011;68145;52.514;13.460;2023-05-15T12:12:48;3.90;;;3.20;;
78796;SDS011;68145;52.514;13.460;2023-05-15T12:15:15;3.53;;;2.92;;
78796;SDS011;68145;52.514;13.460;2023-05-15T12:17:42;5.13;;;2.33;;
78796;SDS011;68145;52.514;13.460;2023-05-15T12:20:09;4.05;;;2.90;;
78796;SDS011;68145;52.514;13.460;2023-05-15T12:22:39;4.65;;;2.40;;
78796;SDS011;68145;52.514;13.460;2023-05-15T12:25:06;3.88;;;2.83;;
78796;SDS011;68145;52.514;13.460;2023-05-15T12:27:33;5.95;;;2.92;;
78796;SDS011;68145;52.514;13.460;2023-05-15T12:30:00;3.08;;;2.40;;
78796;SDS011;68145;52.514;13.460;2023-05-15T12:32:26;4.57;;;2.58;;
78796;SDS011;68145;52.514;13.460;2023-05-15T12:34:52;3.50;;;2.88;;
78796;SDS011;68145;52.514;13.460;2023-05-15T12:37:18;3.83;;;2.70;;
78796;SDS011;68145;52.514;13.460;2023-05-15T12:39:55;4.78;;;2.92;;
78796;SDS011;68145;52.514;13.460;2023-05-15T12:42:21;5.68;;;2.83;;
78796;SDS011;68145;52.514;13.460;2023-05-15T12:44:54;4.38;;;3.30;;
78796;SDS011;68145;52.514;13.460;2023-05-15T12:47:21;4.85;;;3.33;;
78796;SDS011;68145;52.514;13.460;2023-05-15T12:49:47;4.90;;;3.40;;
78796;SDS011;68145;52.514;13.460;2023-05-15T12:52:13;4.28;;;3.38;;
78796;SDS011;68145;52.514;13.460;2023-05-15T12:54:40;3.92;;;2.95;;
78796;SDS011;68145;52.514;13.460;2023-05-15T12:57:07;4.88;;;3.28;;
78796;SDS011;68145;52.514;13.460;2023-05-15T12:59:33;7.22;;;3.97;;
78796;SDS011;68145;52.514;13.460;2023-05-15T13:02:00;5.05;;;2.92;;
78796;SDS011;68145;52.514;13.460;2023-05-15T13:04:26;3.90;;;2.65;;
78796;SDS011;68145;52.514;13.460;2023-05-15T13:06:52;3.65;;;2.35;;
78796;SDS011;68145;52.514;13.460;2023-05-15T13:09:22;2.95;;;2.25;;
78796;SDS011;68145;52.514;13.460;2023-05-15T13:11:49;3.33;;;2.08;;
78796;SDS011;68145;52.514;13.460;2023-05-15T13:14:18;4.18;;;3.05;;
78796;SDS011;68145;52.514;13.460;2023-05-15T13:16:46;4.30;;;2.50;;
78796;SDS011;68145;52.514;13.460;2023-05-15T13:19:12;9.05;;;2.95;;
78796;SDS011;68145;52.514;13.460;2023-05-15T13:21:39;2.80;;;2.20;;
78796;SDS011;68145;52.514;13.460;2023-05-15T13:24:05;4.30;;;2.70;;
78796;SDS011;68145;52.514;13.460;2023-05-15T13:26:33;5.10;;;3.15;;
78796;SDS011;68145;52.514;13.460;2023-05-15T13:28:59;3.58;;;2.53;;
78796;SDS011;68145;52.514;13.460;2023-05-15T13:31:26;4.65;;;2.83;;
78796;SDS011;68145;52.514;13.460;2023-05-15T13:33:52;5.38;;;2.45;;
78796;SDS011;68145;52.514;13.460;2023-05-15T13:36:18;12.50;;;3.10;;
78796;SDS011;68145;52.514;13.460;2023-05-15T13:38:44;10.32;;;3.10;;
78796;SDS011;68145;52.514;13.460;2023-05-15T13:41:10;4.13;;;2.40;;
78796;SDS011;68145;52.514;13.460;2023-05-15T13:43:36;6.65;;;2.92;;
78796;SDS011;68145;52.514;13.460;2023-05-15T13:46:02;11.48;;;4.60;;
78796;SDS011;68145;52.514;13.460;2023-05-15T13:48:28;12.38;;;4.93;;
78796;SDS011;68145;52.514;13.460;2023-05-15T13:50:54;5.13;;;3.03;;
78796;SDS011;68145;52.514;13.460;2023-05-15T13:53:20;11.13;;;3.10;;
78796;SDS011;68145;52.514;13.460;2023-05-15T13:55:46;4.95;;;2.83;;
78796;SDS011;68145;52.514;13.460;2023-05-15T13:58:12;4.35;;;3.10;;
78796;SDS011;68145;52.514;13.460;2023-05-15T14:00:40;6.85;;;2.92;;
78796;SDS011;68145;52.514;13.460;2023-05-15T14:03:06;6.03;;;3.17;;
78796;SDS011;68145;52.514;13.460;2023-05-15T14:05:32;4.88;;;3.28;;
78796;SDS011;68145;52.514;13.460;2023-05-15T14:07:59;5.75;;;3.08;;
78796;SDS011;68145;52.514;13.460;2023-05-15T14:10:25;4.53;;;3.30;;
78796;SDS011;68145;52.514;13.460;2023-05-15T14:12:51;4.00;;;2.83;;
78796;SDS011;68145;52.514;13.460;2023-05-15T14:15:17;4.85;;;3.30;;
78796;SDS011;68145;52.514;13.460;2023-05-15T14:17:43;4.18;;;2.53;;
78796;SDS011;68145;52.514;13.460;2023-05-15T14:20:12;4.78;;;2.92;;
78796;SDS011;68145;52.514;13.460;2023-05-15T14:22:38;5.72;;;3.10;;
78796;SDS011;68145;52.514;13.460;2023-05-15T14:25:05;5.20;;;3.72;;
78796;SDS011;68145;52.514;13.460;2023-05-15T14:27:32;4.18;;;2.80;;
78796;SDS011;68145;52.514;13.460;2023-05-15T14:29:59;4.72;;;2.90;;
78796;SDS011;68145;52.514;13.460;2023-05-15T14:32:25;6.25;;;3.10;;
78796;SDS011;68145;52.514;13.460;2023-05-15T14:34:51;4.15;;;3.05;;
78796;SDS011;68145;52.514;13.460;2023-05-15T14:37:17;7.03;;;3.60;;
78796;SDS011;68145;52.514;13.460;2023-05-15T14:39:43;4.95;;;3.22;;
78796;SDS011;68145;52.514;13.460;2023-05-15T14:42:10;6.88;;;4.05;;
78796;SDS011;68145;52.514;13.460;2023-05-15T14:44:36;6.72;;;4.40;;
78796;SDS011;68145;52.514;13.460;2023-05-15T14:47:09;8.88;;;5.22;;
78796;SDS011;68145;52.514;13.460;2023-05-15T14:49:37;12.27;;;6.45;;
78796;SDS011;68145;52.514;13.460;2023-05-15T14:52:04;6.65;;;4.07;;
78796;SDS011;68145;52.514;13.460;2023-05-15T14:56:56;7.05;;;3.72;;
78796;SDS011;68145;52.514;13.460;2023-05-15T14:59:23;4.82;;;3.22;;
78796;SDS011;68145;52.514;13.460;2023-05-15T15:01:49;3.75;;;2.90;;
78796;SDS011;68145;52.514;13.460;2023-05-15T15:04:15;5.63;;;2.90;;
78796;SDS011;68145;52.514;13.460;2023-05-15T15:06:41;5.25;;;3.10;;
78796;SDS011;68145;52.514;13.460;2023-05-15T15:09:08;3.97;;;2.83;;